sensor_id;sensor_type;location;lat;lon;timestamp;P1;durP1;ratioP1;P2;durP2;ratioP2
60999;SDS011;46879;45.658;11.814;2023-07-31T00:03:15;4.13;;;2.08;;
60999;SDS011;46879;45.658;11.814;2023-07-31T00:08:15;3.75;;;2.03;;
60999;SDS011;46879;45.658;11.814;2023-07-31T00:13:16;5.07;;;2.10;;
60999;SDS011;46879;45.658;11.814;2023-07-31T00:18:16;4.77;;;2.00;;
60999;SDS011;46879;45.658;11.814;2023-07-31T00:23:17;6.10;;;2.17;;
60999;SDS011;46879;45.658;11.814;2023-07-31T00:28:17;6.30;;;1.85;;
60999;SDS011;46879;45.658;11.814;2023-07-31T00:33:18;2.97;;;2.00;;
60999;SDS011;46879;45.658;11.814;2023-07-31T00:38:19;7.82;;;2.20;;
60999;SDS011;46879;45.658;11.814;2023-07-31T00:43:19;3.97;;;2.03;;
60999;SDS011;46879;45.658;11.814;2023-07-31T00:48:20;4.82;;;2.13;;
60999;SDS011;46879;45.658;11.814;2023-07-31T00:53:21;3.38;;;2.10;;
60999;SDS011;46879;45.658;11.814;2023-07-31T00:58:22;3.03;;;2.53;;
60999;SDS011;46879;45.658;11.814;2023-07-31T01:03:23;2.90;;;2.28;;
60999;SDS011;46879;45.658;11.814;2023-07-31T01:08:28;3.47;;;2.20;;
60999;SDS011;46879;45.658;11.814;2023-07-31T01:13:47;2.80;;;2.00;;
60999;SDS011;46879;45.658;11.814;2023-07-31T01:18:48;4.72;;;2.30;;
60999;SDS011;46879;45.658;11.814;2023-07-31T01:24:00;3.10;;;2.20;;
60999;SDS011;46879;45.658;11.814;2023-07-31T01:34:41;4.30;;;2.72;;
60999;SDS011;46879;45.658;11.814;2023-07-31T01:39:43;5.03;;;2.42;;
60999;SDS011;46879;45.658;11.814;2023-07-31T01:44:43;6.63;;;2.30;;
60999;SDS011;46879;45.658;11.814;2023-07-31T01:49:44;4.57;;;2.38;;
60999;SDS011;46879;45.658;11.814;2023-07-31T01:54:45;5.22;;;2.45;;
60999;SDS011;46879;45.658;11.814;2023-07-31T01:59:45;3.60;;;2.17;;
60999;SDS011;46879;45.658;11.814;2023-07-31T02:04:46;4.82;;;2.65;;
60999;SDS011;46879;45.658;11.814;2023-07-31T02:09:47;3.78;;;2.25;;
60999;SDS011;46879;45.658;11.814;2023-07-31T02:14:48;3.05;;;2.17;;
60999;SDS011;46879;45.658;11.814;2023-07-31T02:19:48;8.00;;;2.65;;
60999;SDS011;46879;45.658;11.814;2023-07-31T02:24:49;2.92;;;2.20;;
60999;SDS011;46879;45.658;11.814;2023-07-31T02:29:49;4.20;;;2.58;;
60999;SDS011;46879;45.658;11.814;2023-07-31T02:34:50;3.30;;;2.42;;
60999;SDS011;46879;45.658;11.814;2023-07-31T02:39:50;2.72;;;2.50;;
60999;SDS011;46879;45.658;11.814;2023-07-31T02:44:51;4.60;;;2.65;;
60999;SDS011;46879;45.658;11.814;2023-07-31T02:49:55;3.33;;;2.22;;
60999;SDS011;46879;45.658;11.814;2023-07-31T02:54:56;2.75;;;2.47;;
60999;SDS011;46879;45.658;11.814;2023-07-31T02:59:57;5.28;;;2.40;;
60999;SDS011;46879;45.658;11.814;2023-07-31T03:04:58;3.13;;;2.50;;
60999;SDS011;46879;45.658;11.814;2023-07-31T03:09:59;4.25;;;2.60;;
60999;SDS011;46879;45.658;11.814;2023-07-31T03:14:59;2.75;;;2.55;;
60999;SDS011;46879;45.658;11.814;2023-07-31T03:20:00;2.95;;;2.50;;
60999;SDS011;46879;45.658;11.814;2023-07-31T03:25:01;5.47;;;2.50;;
60999;SDS011;46879;45.658;11.814;2023-07-31T03:30:03;3.33;;;2.60;;
60999;SDS011;46879;45.658;11.814;2023-07-31T03:35:04;5.60;;;2.42;;
60999;SDS011;46879;45.658;11.814;2023-07-31T03:40:05;4.45;;;2.60;;
60999;SDS011;46879;45.658;11.814;2023-07-31T03:45:07;5.05;;;2.67;;
60999;SDS011;46879;45.658;11.814;2023-07-31T03:50:08;3.67;;;2.60;;
60999;SDS011;46879;45.658;11.814;2023-07-31T03:55:09;2.92;;;2.35;;
60999;SDS011;46879;45.658;11.814;2023-07-31T04:00:10;3.25;;;2.25;;
60999;SDS011;46879;45.658;11.814;2023-07-31T04:05:11;4.90;;;2.40;;
60999;SDS011;46879;45.658;11.814;2023-07-31T04:10:11;4.45;;;2.45;;
60999;SDS011;46879;45.658;11.814;2023-07-31T04:15:12;3.95;;;2.60;;
60999;SDS011;46879;45.658;11.814;2023-07-31T04:20:12;3.65;;;2.83;;
60999;SDS011;46879;45.658;11.814;2023-07-31T04:25:13;3.03;;;2.70;;
60999;SDS011;46879;45.658;11.814;2023-07-31T04:30:14;2.45;;;2.25;;
60999;SDS011;46879;45.658;11.814;2023-07-31T04:35:14;3.10;;;2.67;;
60999;SDS011;46879;45.658;11.814;2023-07-31T04:40:15;4.72;;;2.70;;
60999;SDS011;46879;45.658;11.814;2023-07-31T04:45:16;2.45;;;2.25;;
60999;SDS011;46879;45.658;11.814;2023-07-31T04:50:17;3.85;;;2.40;;
60999;SDS011;46879;45.658;11.814;2023-07-31T04:55:17;6.18;;;2.53;;
60999;SDS011;46879;45.658;11.814;2023-07-31T05:00:18;2.55;;;2.13;;
60999;SDS011;46879;45.658;11.814;2023-07-31T05:05:19;2.42;;;2.10;;
60999;SDS011;46879;45.658;11.814;2023-07-31T05:10:19;4.35;;;2.30;;
60999;SDS011;46879;45.658;11.814;2023-07-31T05:15:20;2.30;;;2.10;;
60999;SDS011;46879;45.658;11.814;2023-07-31T05:20:21;4.55;;;2.53;;
60999;SDS011;46879;45.658;11.814;2023-07-31T05:25:21;3.05;;;1.90;;
60999;SDS011;46879;45.658;11.814;2023-07-31T05:30:22;5.97;;;1.95;;
60999;SDS011;46879;45.658;11.814;2023-07-31T05:35:22;6.93;;;2.08;;
60999;SDS011;46879;45.658;11.814;2023-07-31T05:40:23;7.97;;;2.47;;
60999;SDS011;46879;45.658;11.814;2023-07-31T05:45:25;9.75;;;2.50;;
60999;SDS011;46879;45.658;11.814;2023-07-31T05:50:25;4.00;;;2.42;;
60999;SDS011;46879;45.658;11.814;2023-07-31T05:55:26;6.05;;;2.40;;
60999;SDS011;46879;45.658;11.814;2023-07-31T06:00:27;14.90;;;2.28;;
60999;SDS011;46879;45.658;11.814;2023-07-31T06:05:28;4.90;;;2.08;;
60999;SDS011;46879;45.658;11.814;2023-07-31T06:10:30;8.13;;;2.20;;
60999;SDS011;46879;45.658;11.814;2023-07-31T06:15:30;7.38;;;2.22;;
60999;SDS011;46879;45.658;11.814;2023-07-31T06:20:31;7.15;;;2.45;;
60999;SDS011;46879;45.658;11.814;2023-07-31T06:25:31;3.85;;;2.30;;
60999;SDS011;46879;45.658;11.814;2023-07-31T06:30:32;2.60;;;1.95;;
60999;SDS011;46879;45.658;11.814;2023-07-31T06:35:35;9.77;;;2.38;;
60999;SDS011;46879;45.658;11.814;2023-07-31T06:40:35;5.95;;;2.33;;
60999;SDS011;46879;45.658;11.814;2023-07-31T06:45:36;4.55;;;1.90;;
60999;SDS011;46879;45.658;11.814;2023-07-31T06:50:37;6.35;;;2.30;;
60999;SDS011;46879;45.658;11.814;2023-07-31T06:55:38;4.43;;;2.47;;
60999;SDS011;46879;45.658;11.814;2023-07-31T07:00:38;3.08;;;2.03;;
60999;SDS011;46879;45.658;11.814;2023-07-31T07:05:39;3.72;;;2.00;;
60999;SDS011;46879;45.658;11.814;2023-07-31T07:10:40;4.68;;;2.05;;
60999;SDS011;46879;45.658;11.814;2023-07-31T07:15:40;3.60;;;2.40;;
60999;SDS011;46879;45.658;11.814;2023-07-31T07:20:50;7.07;;;2.50;;
60999;SDS011;46879;45.658;11.814;2023-07-31T07:25:53;6.75;;;2.10;;
60999;SDS011;46879;45.658;11.814;2023-07-31T07:30:53;2.08;;;1.52;;
60999;SDS011;46879;45.658;11.814;2023-07-31T07:35:54;5.97;;;1.95;;
60999;SDS011;46879;45.658;11.814;2023-07-31T07:40:54;4.13;;;1.92;;
60999;SDS011;46879;45.658;11.814;2023-07-31T07:45:55;4.50;;;2.30;;
60999;SDS011;46879;45.658;11.814;2023-07-31T07:50:56;3.58;;;1.75;;
60999;SDS011;46879;45.658;11.814;2023-07-31T07:55:56;4.72;;;1.60;;
60999;SDS011;46879;45.658;11.814;2023-07-31T08:00:57;6.13;;;1.90;;
60999;SDS011;46879;45.658;11.814;2023-07-31T08:05:58;4.40;;;1.80;;
60999;SDS011;46879;45.658;11.814;2023-07-31T08:11:00;3.50;;;1.70;;
60999;SDS011;46879;45.658;11.814;2023-07-31T08:16:00;5.82;;;1.90;;
60999;SDS011;46879;45.658;11.814;2023-07-31T08:21:04;3.28;;;1.58;;
60999;SDS011;46879;45.658;11.814;2023-07-31T08:26:05;4.88;;;1.58;;
60999;SDS011;46879;45.658;11.814;2023-07-31T08:31:05;4.03;;;1.55;;
60999;SDS011;46879;45.658;11.814;2023-07-31T08:36:06;5.00;;;1.60;;
60999;SDS011;46879;45.658;11.814;2023-07-31T08:41:07;3.10;;;1.63;;
60999;SDS011;46879;45.658;11.814;2023-07-31T08:46:07;3.85;;;1.58;;
60999;SDS011;46879;45.658;11.814;2023-07-31T08:51:08;2.72;;;1.65;;
60999;SDS011;46879;45.658;11.814;2023-07-31T08:56:10;2.92;;;1.58;;
60999;SDS011;46879;45.658;11.814;2023-07-31T09:01:12;3.40;;;1.70;;
60999;SDS011;46879;45.658;11.814;2023-07-31T09:06:13;4.03;;;1.60;;
60999;SDS011;46879;45.658;11.814;2023-07-31T09:11:17;2.30;;;1.60;;
60999;SDS011;46879;45.658;11.814;2023-07-31T09:16:19;3.67;;;1.20;;
60999;SDS011;46879;45.658;11.814;2023-07-31T09:21:30;4.47;;;1.58;;
60999;SDS011;46879;45.658;11.814;2023-07-31T09:26:31;1.40;;;1.30;;
60999;SDS011;46879;45.658;11.814;2023-07-31T09:31:40;3.70;;;1.50;;
60999;SDS011;46879;45.658;11.814;2023-07-31T09:36:43;2.53;;;1.52;;
60999;SDS011;46879;45.658;11.814;2023-07-31T09:41:55;2.08;;;1.60;;
60999;SDS011;46879;45.658;11.814;2023-07-31T09:46:56;2.30;;;1.30;;
60999;SDS011;46879;45.658;11.814;2023-07-31T09:51:56;3.00;;;1.33;;
60999;SDS011;46879;45.658;11.814;2023-07-31T09:56:57;3.90;;;1.50;;
60999;SDS011;46879;45.658;11.814;2023-07-31T10:02:00;2.88;;;1.50;;
60999;SDS011;46879;45.658;11.814;2023-07-31T10:07:01;4.18;;;1.65;;
60999;SDS011;46879;45.658;11.814;2023-07-31T10:12:04;5.25;;;1.50;;
60999;SDS011;46879;45.658;11.814;2023-07-31T10:17:09;1.52;;;1.20;;
60999;SDS011;46879;45.658;11.814;2023-07-31T10:22:11;4.45;;;1.58;;
60999;SDS011;46879;45.658;11.814;2023-07-31T10:27:13;2.10;;;1.15;;
60999;SDS011;46879;45.658;11.814;2023-07-31T10:32:13;3.22;;;1.45;;
60999;SDS011;46879;45.658;11.814;2023-07-31T10:37:25;1.65;;;1.42;;
60999;SDS011;46879;45.658;11.814;2023-07-31T10:42:29;3.42;;;1.40;;
60999;SDS011;46879;45.658;11.814;2023-07-31T10:47:57;1.73;;;1.45;;
60999;SDS011;46879;45.658;11.814;2023-07-31T10:58:05;2.17;;;1.40;;
60999;SDS011;46879;45.658;11.814;2023-07-31T11:03:18;6.25;;;1.27;;
60999;SDS011;46879;45.658;11.814;2023-07-31T11:08:23;2.13;;;1.17;;
60999;SDS011;46879;45.658;11.814;2023-07-31T11:13:32;1.38;;;1.27;;
60999;SDS011;46879;45.658;11.814;2023-07-31T11:18:40;2.22;;;1.35;;
60999;SDS011;46879;45.658;11.814;2023-07-31T11:23:45;4.90;;;1.30;;
60999;SDS011;46879;45.658;11.814;2023-07-31T11:28:56;5.72;;;1.30;;
60999;SDS011;46879;45.658;11.814;2023-07-31T11:34:06;1.55;;;1.40;;
60999;SDS011;46879;45.658;11.814;2023-07-31T11:39:10;2.38;;;1.48;;
60999;SDS011;46879;45.658;11.814;2023-07-31T11:44:11;2.70;;;1.40;;
60999;SDS011;46879;45.658;11.814;2023-07-31T11:49:11;4.22;;;1.33;;
60999;SDS011;46879;45.658;11.814;2023-07-31T11:54:12;3.45;;;1.90;;
60999;SDS011;46879;45.658;11.814;2023-07-31T11:59:14;1.88;;;1.40;;
60999;SDS011;46879;45.658;11.814;2023-07-31T12:04:14;1.88;;;1.40;;
60999;SDS011;46879;45.658;11.814;2023-07-31T12:09:15;2.00;;;1.38;;
60999;SDS011;46879;45.658;11.814;2023-07-31T12:14:23;3.22;;;1.70;;
60999;SDS011;46879;45.658;11.814;2023-07-31T12:19:25;5.72;;;1.50;;
60999;SDS011;46879;45.658;11.814;2023-07-31T12:24:29;3.33;;;1.60;;
60999;SDS011;46879;45.658;11.814;2023-07-31T12:29:34;2.28;;;1.50;;
60999;SDS011;46879;45.658;11.814;2023-07-31T12:39:42;1.70;;;1.60;;
60999;SDS011;46879;45.658;11.814;2023-07-31T12:44:43;5.28;;;2.00;;
60999;SDS011;46879;45.658;11.814;2023-07-31T12:49:43;1.85;;;1.60;;
60999;SDS011;46879;45.658;11.814;2023-07-31T12:54:44;1.50;;;1.40;;
60999;SDS011;46879;45.658;11.814;2023-07-31T12:59:44;2.13;;;1.50;;
60999;SDS011;46879;45.658;11.814;2023-07-31T13:04:45;3.28;;;1.65;;
60999;SDS011;46879;45.658;11.814;2023-07-31T13:09:46;4.00;;;1.90;;
60999;SDS011;46879;45.658;11.814;2023-07-31T13:14:46;6.05;;;1.67;;
60999;SDS011;46879;45.658;11.814;2023-07-31T13:19:47;2.42;;;1.60;;
60999;SDS011;46879;45.658;11.814;2023-07-31T13:24:47;5.82;;;1.38;;
60999;SDS011;46879;45.658;11.814;2023-07-31T13:29:48;2.83;;;1.50;;
60999;SDS011;46879;45.658;11.814;2023-07-31T13:34:49;1.70;;;1.48;;
60999;SDS011;46879;45.658;11.814;2023-07-31T13:39:49;2.13;;;1.70;;
60999;SDS011;46879;45.658;11.814;2023-07-31T13:44:50;1.60;;;1.50;;
60999;SDS011;46879;45.658;11.814;2023-07-31T13:49:50;2.13;;;1.70;;
60999;SDS011;46879;45.658;11.814;2023-07-31T13:54:51;9.80;;;2.83;;
60999;SDS011;46879;45.658;11.814;2023-07-31T13:59:52;9.93;;;3.60;;
60999;SDS011;46879;45.658;11.814;2023-07-31T14:04:52;9.18;;;3.78;;
60999;SDS011;46879;45.658;11.814;2023-07-31T14:09:53;13.30;;;4.47;;
60999;SDS011;46879;45.658;11.814;2023-07-31T14:14:53;9.48;;;3.42;;
60999;SDS011;46879;45.658;11.814;2023-07-31T14:19:54;11.48;;;3.55;;
60999;SDS011;46879;45.658;11.814;2023-07-31T14:24:54;10.25;;;3.35;;
60999;SDS011;46879;45.658;11.814;2023-07-31T14:29:55;8.05;;;3.50;;
60999;SDS011;46879;45.658;11.814;2023-07-31T14:34:56;12.18;;;3.63;;
60999;SDS011;46879;45.658;11.814;2023-07-31T14:39:56;7.30;;;2.78;;
60999;SDS011;46879;45.658;11.814;2023-07-31T14:44:57;7.80;;;2.70;;
60999;SDS011;46879;45.658;11.814;2023-07-31T14:49:58;6.15;;;2.80;;
60999;SDS011;46879;45.658;11.814;2023-07-31T14:54:59;4.82;;;2.50;;
60999;SDS011;46879;45.658;11.814;2023-07-31T15:00:00;7.25;;;3.03;;
60999;SDS011;46879;45.658;11.814;2023-07-31T15:05:01;3.80;;;2.38;;
60999;SDS011;46879;45.658;11.814;2023-07-31T15:10:02;6.72;;;2.80;;
60999;SDS011;46879;45.658;11.814;2023-07-31T15:15:04;5.93;;;2.50;;
60999;SDS011;46879;45.658;11.814;2023-07-31T15:20:05;5.40;;;2.85;;
60999;SDS011;46879;45.658;11.814;2023-07-31T15:25:07;7.72;;;2.83;;
60999;SDS011;46879;45.658;11.814;2023-07-31T15:30:08;2.97;;;2.20;;
60999;SDS011;46879;45.658;11.814;2023-07-31T15:35:09;5.30;;;2.50;;
60999;SDS011;46879;45.658;11.814;2023-07-31T15:40:10;6.28;;;2.30;;
60999;SDS011;46879;45.658;11.814;2023-07-31T15:45:11;3.72;;;2.35;;
60999;SDS011;46879;45.658;11.814;2023-07-31T15:50:11;4.55;;;2.47;;
60999;SDS011;46879;45.658;11.814;2023-07-31T15:55:12;2.63;;;1.80;;
60999;SDS011;46879;45.658;11.814;2023-07-31T16:00:12;9.45;;;1.85;;
60999;SDS011;46879;45.658;11.814;2023-07-31T16:05:13;2.53;;;2.13;;
60999;SDS011;46879;45.658;11.814;2023-07-31T16:10:14;3.85;;;2.15;;
60999;SDS011;46879;45.658;11.814;2023-07-31T16:15:14;3.92;;;2.08;;
60999;SDS011;46879;45.658;11.814;2023-07-31T16:20:15;3.90;;;1.92;;
60999;SDS011;46879;45.658;11.814;2023-07-31T16:25:16;4.25;;;1.90;;
60999;SDS011;46879;45.658;11.814;2023-07-31T16:30:17;1.77;;;1.65;;
60999;SDS011;46879;45.658;11.814;2023-07-31T16:35:17;2.35;;;1.92;;
60999;SDS011;46879;45.658;11.814;2023-07-31T16:40:18;3.05;;;1.88;;
60999;SDS011;46879;45.658;11.814;2023-07-31T16:45:18;3.38;;;1.70;;
60999;SDS011;46879;45.658;11.814;2023-07-31T16:50:19;2.17;;;1.70;;
60999;SDS011;46879;45.658;11.814;2023-07-31T16:55:20;2.25;;;1.80;;
60999;SDS011;46879;45.658;11.814;2023-07-31T17:00:20;3.00;;;1.88;;
60999;SDS011;46879;45.658;11.814;2023-07-31T17:05:21;2.08;;;1.65;;
60999;SDS011;46879;45.658;11.814;2023-07-31T17:10:23;2.83;;;1.70;;
60999;SDS011;46879;45.658;11.814;2023-07-31T17:15:23;3.60;;;1.80;;
60999;SDS011;46879;45.658;11.814;2023-07-31T17:20:24;1.77;;;1.67;;
60999;SDS011;46879;45.658;11.814;2023-07-31T17:25:25;4.82;;;2.00;;
60999;SDS011;46879;45.658;11.814;2023-07-31T17:30:25;2.25;;;1.67;;
60999;SDS011;46879;45.658;11.814;2023-07-31T17:35:26;5.07;;;1.80;;
60999;SDS011;46879;45.658;11.814;2023-07-31T17:40:26;3.35;;;2.00;;
60999;SDS011;46879;45.658;11.814;2023-07-31T17:45:27;3.95;;;2.30;;
60999;SDS011;46879;45.658;11.814;2023-07-31T17:50:28;8.27;;;2.63;;
60999;SDS011;46879;45.658;11.814;2023-07-31T17:55:29;5.28;;;2.22;;
60999;SDS011;46879;45.658;11.814;2023-07-31T18:00:30;3.50;;;1.98;;
60999;SDS011;46879;45.658;11.814;2023-07-31T18:05:31;5.43;;;2.60;;
60999;SDS011;46879;45.658;11.814;2023-07-31T18:10:31;5.72;;;1.95;;
60999;SDS011;46879;45.658;11.814;2023-07-31T18:15:33;7.15;;;1.63;;
60999;SDS011;46879;45.658;11.814;2023-07-31T18:20:35;4.90;;;2.00;;
60999;SDS011;46879;45.658;11.814;2023-07-31T18:25:36;4.68;;;1.92;;
60999;SDS011;46879;45.658;11.814;2023-07-31T18:30:39;2.45;;;1.58;;
60999;SDS011;46879;45.658;11.814;2023-07-31T18:35:40;4.30;;;2.10;;
60999;SDS011;46879;45.658;11.814;2023-07-31T18:40:40;5.53;;;1.70;;
60999;SDS011;46879;45.658;11.814;2023-07-31T18:45:41;2.88;;;1.50;;
60999;SDS011;46879;45.658;11.814;2023-07-31T18:50:41;3.60;;;2.15;;
60999;SDS011;46879;45.658;11.814;2023-07-31T18:55:44;2.65;;;1.98;;
60999;SDS011;46879;45.658;11.814;2023-07-31T19:00:45;3.17;;;2.17;;
60999;SDS011;46879;45.658;11.814;2023-07-31T19:05:46;3.95;;;2.08;;
60999;SDS011;46879;45.658;11.814;2023-07-31T19:10:46;4.50;;;2.30;;
60999;SDS011;46879;45.658;11.814;2023-07-31T19:15:47;5.38;;;1.80;;
60999;SDS011;46879;45.658;11.814;2023-07-31T19:20:48;2.33;;;1.70;;
60999;SDS011;46879;45.658;11.814;2023-07-31T19:25:49;2.20;;;1.95;;
60999;SDS011;46879;45.658;11.814;2023-07-31T19:30:50;3.97;;;1.98;;
60999;SDS011;46879;45.658;11.814;2023-07-31T19:35:54;3.00;;;1.85;;
60999;SDS011;46879;45.658;11.814;2023-07-31T19:40:59;2.28;;;1.85;;
60999;SDS011;46879;45.658;11.814;2023-07-31T19:46:03;3.25;;;2.10;;
60999;SDS011;46879;45.658;11.814;2023-07-31T19:51:03;3.28;;;2.20;;
60999;SDS011;46879;45.658;11.814;2023-07-31T19:56:07;2.30;;;1.70;;
60999;SDS011;46879;45.658;11.814;2023-07-31T20:01:09;1.80;;;1.58;;
60999;SDS011;46879;45.658;11.814;2023-07-31T20:06:10;3.50;;;1.98;;
60999;SDS011;46879;45.658;11.814;2023-07-31T20:11:10;2.08;;;1.80;;
60999;SDS011;46879;45.658;11.814;2023-07-31T20:16:11;5.85;;;2.00;;
60999;SDS011;46879;45.658;11.814;2023-07-31T20:21:12;3.22;;;2.15;;
60999;SDS011;46879;45.658;11.814;2023-07-31T20:26:12;4.90;;;1.67;;
60999;SDS011;46879;45.658;11.814;2023-07-31T20:31:13;4.38;;;1.58;;
60999;SDS011;46879;45.658;11.814;2023-07-31T20:36:14;7.32;;;2.25;;
60999;SDS011;46879;45.658;11.814;2023-07-31T20:41:14;2.92;;;1.80;;
60999;SDS011;46879;45.658;11.814;2023-07-31T20:46:15;2.05;;;1.83;;
60999;SDS011;46879;45.658;11.814;2023-07-31T20:51:15;3.47;;;2.22;;
60999;SDS011;46879;45.658;11.814;2023-07-31T20:56:16;5.78;;;2.13;;
60999;SDS011;46879;45.658;11.814;2023-07-31T21:01:17;3.72;;;2.00;;
60999;SDS011;46879;45.658;11.814;2023-07-31T21:06:17;4.55;;;1.80;;
60999;SDS011;46879;45.658;11.814;2023-07-31T21:11:19;4.05;;;1.90;;
60999;SDS011;46879;45.658;11.814;2023-07-31T21:16:20;2.60;;;1.77;;
60999;SDS011;46879;45.658;11.814;2023-07-31T21:21:20;2.55;;;1.67;;
60999;SDS011;46879;45.658;11.814;2023-07-31T21:26:21;6.60;;;2.15;;
60999;SDS011;46879;45.658;11.814;2023-07-31T21:31:22;3.45;;;2.05;;
60999;SDS011;46879;45.658;11.814;2023-07-31T21:36:22;4.93;;;1.95;;
60999;SDS011;46879;45.658;11.814;2023-07-31T21:41:23;4.30;;;2.00;;
60999;SDS011;46879;45.658;11.814;2023-07-31T21:46:24;12.20;;;2.05;;
60999;SDS011;46879;45.658;11.814;2023-07-31T21:51:24;3.08;;;2.05;;
60999;SDS011;46879;45.658;11.814;2023-07-31T21:56:25;3.75;;;1.90;;
60999;SDS011;46879;45.658;11.814;2023-07-31T22:01:26;7.40;;;2.30;;
60999;SDS011;46879;45.658;11.814;2023-07-31T22:06:26;3.53;;;1.80;;
60999;SDS011;46879;45.658;11.814;2023-07-31T22:11:27;2.83;;;2.15;;
60999;SDS011;46879;45.658;11.814;2023-07-31T22:16:27;2.08;;;1.70;;
60999;SDS011;46879;45.658;11.814;2023-07-31T22:21:28;3.20;;;2.10;;
60999;SDS011;46879;45.658;11.814;2023-07-31T22:26:29;4.30;;;2.20;;
60999;SDS011;46879;45.658;11.814;2023-07-31T22:31:29;3.38;;;2.22;;
60999;SDS011;46879;45.658;11.814;2023-07-31T22:36:30;7.22;;;2.03;;
60999;SDS011;46879;45.658;11.814;2023-07-31T22:41:30;4.00;;;2.13;;
60999;SDS011;46879;45.658;11.814;2023-07-31T22:46:31;2.58;;;2.17;;
60999;SDS011;46879;45.658;11.814;2023-07-31T22:51:32;3.08;;;2.30;;
60999;SDS011;46879;45.658;11.814;2023-07-31T22:56:33;3.15;;;2.30;;
60999;SDS011;46879;45.658;11.814;2023-07-31T23:01:33;7.40;;;2.80;;
60999;SDS011;46879;45.658;11.814;2023-07-31T23:06:34;2.80;;;2.38;;
60999;SDS011;46879;45.658;11.814;2023-07-31T23:11:34;3.47;;;2.47;;
60999;SDS011;46879;45.658;11.814;2023-07-31T23:16:35;5.47;;;2.92;;
60999;SDS011;46879;45.658;11.814;2023-07-31T23:21:35;3.78;;;2.70;;
60999;SDS011;46879;45.658;11.814;2023-07-31T23:26:36;4.93;;;2.83;;
60999;SDS011;46879;45.658;11.814;2023-07-31T23:31:37;6.68;;;2.95;;
60999;SDS011;46879;45.658;11.814;2023-07-31T23:36:37;2.85;;;2.58;;
60999;SDS011;46879;45.658;11.814;2023-07-31T23:41:38;2.95;;;2.70;;
60999;SDS011;46879;45.658;11.814;2023-07-31T23:46:39;6.32;;;2.80;;
60999;SDS011;46879;45.658;11.814;2023-07-31T23:51:46;3.03;;;2.70;;
60999;SDS011;46879;45.658;11.814;2023-07-31T23:56:46;6.90;;;3.10;;
